Time;durP1;ratioP1;P1;durP2;ratioP2;P2;SDS_P1;SDS_P2;PMS_P1;PMS_P2;Temp;Humidity;BMP_temperature;BMP_pressure;BME280_temperature;BME280_humidity;BME280_pressure;Samples;Min_cycle;Max_cycle;Signal;HPM_P1;HPM_P2
2021/12/27 00:01:03;;;;;;;31.80;14.50;;;1.60;99.90;;;;;;5080968;28;20059;-71
2021/12/27 00:03:29;;;;;;;30.13;13.73;;;1.50;99.90;;;;;;5065377;28;20056;-71
2021/12/27 00:05:55;;;;;;;29.27;13.07;;;;;;;;;;5085809;28;20093;-71
2021/12/27 00:08:23;;;;;;;31.00;14.60;;;1.50;99.90;;;;;;5079862;28;20392;-70
2021/12/27 00:10:49;;;;;;;29.20;12.47;;;1.50;99.90;;;;;;5085509;28;20064;-71
2021/12/27 00:13:14;;;;;;;31.95;14.07;;;1.50;99.90;;;;;;5086326;28;20275;-73
2021/12/27 00:15:42;;;;;;;30.15;14.35;;;1.60;99.90;;;;;;5086382;28;20032;-70
2021/12/27 00:18:07;;;;;;;29.77;13.23;;;1.50;99.90;;;;;;5068679;28;20389;-71
2021/12/27 00:20:33;;;;;;;27.30;13.48;;;1.60;99.90;;;;;;5062750;28;20020;-70
2021/12/27 00:22:59;;;;;;;28.60;14.23;;;1.60;99.90;;;;;;5061330;28;20040;-72
2021/12/27 00:25:26;;;;;;;29.42;14.45;;;1.70;99.90;;;;;;5085503;28;20520;-71
2021/12/27 00:27:52;;;;;;;28.27;14.40;;;1.70;99.90;;;;;;5082552;28;20024;-71
2021/12/27 00:30:20;;;;;;;28.35;13.60;;;1.60;99.90;;;;;;5079719;28;20476;-71
2021/12/27 00:32:46;;;;;;;29.67;14.35;;;1.70;99.90;;;;;;5060927;28;20069;-71
2021/12/27 00:35:14;;;;;;;29.55;14.15;;;1.70;99.90;;;;;;5061202;28;20024;-75
2021/12/27 00:37:40;;;;;;;27.58;13.20;;;1.70;99.90;;;;;;5068489;28;20107;-71
2021/12/27 00:40:07;;;;;;;28.58;13.13;;;;;;;;;;5081942;28;20035;-72
2021/12/27 00:42:33;;;;;;;31.08;14.20;;;;;;;;;;5080544;28;20499;-71
2021/12/27 00:44:59;;;;;;;29.48;13.32;;;;;;;;;;5083243;28;20105;-71
2021/12/27 00:47:25;;;;;;;31.98;14.48;;;;;;;;;;5073817;28;20470;-71
2021/12/27 00:49:51;;;;;;;28.38;14.02;;;;;;;;;;5091276;28;20047;-72
2021/12/27 00:52:17;;;;;;;31.50;14.30;;;;;;;;;;5093246;28;20099;-71
2021/12/27 00:54:43;;;;;;;31.02;16.48;;;1.70;99.90;;;;;;5075964;28;20491;-71
2021/12/27 00:57:08;;;;;;;27.60;14.02;;;1.90;99.90;;;;;;5094073;28;20020;-71
2021/12/27 00:59:34;;;;;;;29.83;14.13;;;1.90;99.90;;;;;;5093983;28;20369;-71
2021/12/27 01:02:00;;;;;;;30.08;14.10;;;2.00;99.90;;;;;;5092846;28;20024;-71
2021/12/27 01:04:25;;;;;;;30.35;13.05;;;2.00;99.90;;;;;;5093352;28;20480;-71
2021/12/27 01:06:51;;;;;;;28.58;13.43;;;2.00;99.90;;;;;;5075366;28;20514;-71
2021/12/27 01:09:31;;;;;;;28.55;13.35;;;2.00;99.90;;;;;;5075389;28;20028;-71
2021/12/27 01:12:25;;;;;;;28.20;13.40;;;2.00;99.90;;;;;;5092515;28;20433;-71
2021/12/27 01:17:38;;;;;;;27.15;12.75;;;2.00;99.90;;;;;;5093305;28;20476;-71
2021/12/27 01:20:07;;;;;;;27.33;14.43;;;2.00;99.90;;;;;;5093679;28;20391;-70
2021/12/27 01:22:33;;;;;;;30.63;13.73;;;1.90;99.90;;;;;;5112477;23;20542;-67
2021/12/27 01:24:59;;;;;;;61.55;33.25;;;1.90;99.90;;;;;;5093220;28;20106;-68
2021/12/27 01:27:25;;;;;;;29.88;14.95;;;2.00;99.90;;;;;;5075137;28;20502;-68
2021/12/27 01:29:51;;;;;;;29.85;14.10;;;1.90;99.90;;;;;;5075135;28;20024;-68
2021/12/27 01:32:16;;;;;;;28.52;13.32;;;1.90;99.90;;;;;;5092720;28;20027;-68
2021/12/27 01:34:42;;;;;;;33.42;15.13;;;1.90;99.90;;;;;;5075118;28;20035;-67
2021/12/27 01:37:08;;;;;;;28.45;14.20;;;1.90;99.90;;;;;;5075199;28;20052;-68
2021/12/27 01:39:33;;;;;;;31.50;14.65;;;1.90;99.90;;;;;;5075431;28;20387;-68
2021/12/27 01:41:59;;;;;;;28.80;14.80;;;2.00;99.90;;;;;;5092756;28;20483;-68
2021/12/27 01:44:25;;;;;;;30.98;13.95;;;2.00;99.90;;;;;;5075095;28;20395;-69
2021/12/27 01:46:53;;;;;;;31.25;13.77;;;2.10;99.90;;;;;;5075189;28;20499;-68
2021/12/27 01:49:18;;;;;;;28.67;13.03;;;2.00;99.90;;;;;;5074761;28;20031;-68
2021/12/27 01:51:45;;;;;;;33.28;13.75;;;2.00;99.90;;;;;;5074343;28;20032;-69
2021/12/27 01:54:10;;;;;;;29.17;15.13;;;2.00;99.90;;;;;;5075182;28;20022;-68
2021/12/27 01:56:37;;;;;;;29.70;14.23;;;1.90;99.90;;;;;;5074856;28;20532;-68
2021/12/27 01:59:03;;;;;;;31.27;14.10;;;1.80;99.90;;;;;;5075070;28;20027;-67
2021/12/27 02:01:28;;;;;;;33.20;15.38;;;1.80;99.90;;;;;;5092796;28;20107;-67
2021/12/27 02:03:56;;;;;;;30.70;14.90;;;1.80;99.90;;;;;;5074373;28;20059;-68
2021/12/27 02:06:22;;;;;;;26.90;14.27;;;1.70;99.90;;;;;;5074755;28;20034;-69
2021/12/27 02:08:48;;;;;;;29.08;14.43;;;1.60;99.90;;;;;;5074889;28;20047;-68
2021/12/27 02:11:16;;;;;;;31.58;15.75;;;1.70;99.90;;;;;;5074368;28;20024;-68
2021/12/27 02:13:44;;;;;;;31.85;14.15;;;1.70;99.90;;;;;;5091770;28;20023;-68
2021/12/27 02:16:15;;;;;;;33.15;15.95;;;1.70;99.90;;;;;;5074100;28;20024;-68
2021/12/27 02:18:41;;;;;;;29.25;13.23;;;1.80;99.90;;;;;;5074543;28;20122;-67
2021/12/27 02:21:07;;;;;;;30.17;13.77;;;1.80;99.90;;;;;;5074497;28;20114;-70
2021/12/27 02:23:34;;;;;;;32.88;14.73;;;1.80;99.90;;;;;;5073838;28;20032;-68
2021/12/27 02:26:00;;;;;;;27.88;12.52;;;1.80;99.90;;;;;;5074678;28;20028;-68
2021/12/27 02:28:25;;;;;;;30.90;14.65;;;1.80;99.90;;;;;;5074441;28;20427;-67
2021/12/27 02:30:54;;;;;;;32.17;14.98;;;1.90;99.90;;;;;;5075071;28;20063;-67
2021/12/27 02:33:20;;;;;;;27.48;13.30;;;1.90;99.90;;;;;;5073594;28;20027;-67
2021/12/27 02:35:48;;;;;;;31.63;15.20;;;1.90;99.90;;;;;;5074207;28;20024;-68
2021/12/27 02:38:17;;;;;;;29.90;13.90;;;1.90;99.90;;;;;;5074167;28;20020;-70
2021/12/27 02:40:43;;;;;;;32.45;14.98;;;1.90;99.90;;;;;;5092277;28;20043;-68
2021/12/27 02:43:16;;;;;;;29.70;14.15;;;2.00;99.90;;;;;;5073833;28;20682;-69
2021/12/27 02:45:52;;;;;;;29.95;14.07;;;1.90;99.90;;;;;;5092191;28;20062;-69
2021/12/27 02:48:23;;;;;;;30.77;14.60;;;1.90;99.90;;;;;;5074250;28;20020;-68
2021/12/27 02:50:50;;;;;;;31.70;16.25;;;2.00;99.90;;;;;;5074385;28;20492;-68
2021/12/27 02:53:16;;;;;;;27.92;12.80;;;2.00;99.90;;;;;;5091785;28;20028;-68
2021/12/27 02:55:43;;;;;;;28.45;12.20;;;1.90;99.90;;;;;;5074159;28;20101;-68
2021/12/27 02:58:09;;;;;;;28.25;15.20;;;1.90;99.90;;;;;;5074192;28;20442;-68
2021/12/27 03:00:51;;;;;;;32.22;16.83;;;1.90;99.90;;;;;;5074294;28;20024;-67
2021/12/27 03:03:16;;;;;;;29.02;14.55;;;1.90;99.90;;;;;;5091338;28;20032;-68
2021/12/27 03:05:44;;;;;;;31.58;15.45;;;2.00;99.90;;;;;;5092026;28;20484;-68
2021/12/27 03:08:14;;;;;;;32.67;14.02;;;1.90;99.90;;;;;;5092083;28;20422;-68
2021/12/27 03:10:42;;;;;;;32.22;16.20;;;2.00;99.90;;;;;;5092000;28;20430;-68
2021/12/27 03:13:13;;;;;;;29.23;14.20;;;2.00;99.90;;;;;;5091452;28;20027;-68
2021/12/27 03:15:39;;;;;;;30.42;15.27;;;2.00;99.90;;;;;;5092281;28;20428;-67
2021/12/27 03:18:05;;;;;;;32.03;14.55;;;2.00;99.90;;;;;;5091966;28;20059;-68
2021/12/27 03:20:30;;;;;;;32.10;13.88;;;2.00;99.90;;;;;;5074010;28;20080;-68
2021/12/27 03:22:56;;;;;;;32.72;14.85;;;2.00;99.90;;;;;;5072925;28;20028;-68
2021/12/27 03:25:25;;;;;;;31.35;14.80;;;2.00;99.90;;;;;;5090109;28;20024;-67
2021/12/27 03:27:51;;;;;;;27.35;13.05;;;2.10;99.90;;;;;;5074310;28;20487;-68
2021/12/27 03:30:21;;;;;;;28.50;14.63;;;2.10;99.90;;;;;;5095581;28;20028;-68
2021/12/27 03:32:49;;;;;;;29.30;15.20;;;2.10;99.90;;;;;;5076675;28;20069;-68
2021/12/27 03:35:25;;;;;;;30.55;14.52;;;2.10;99.90;;;;;;5077238;28;20107;-68
2021/12/27 03:37:52;;;;;;;29.23;13.98;;;2.00;99.90;;;;;;5077371;28;20016;-68
2021/12/27 03:40:20;;;;;;;30.53;13.00;;;2.10;99.90;;;;;;5095872;28;20027;-67
2021/12/27 03:42:50;;;;;;;31.10;14.35;;;2.10;99.90;;;;;;5094847;28;20894;-68
2021/12/27 03:45:21;;;;;;;30.63;12.98;;;2.10;99.90;;;;;;5095443;28;20020;-69
2021/12/27 03:47:48;;;;;;;30.20;15.00;;;2.10;99.90;;;;;;5095322;28;20499;-68
2021/12/27 03:50:13;;;;;;;31.20;14.25;;;2.10;99.90;;;;;;5095276;28;20035;-68
2021/12/27 03:52:39;;;;;;;28.90;13.60;;;2.20;99.90;;;;;;5094515;28;20468;-68
2021/12/27 03:55:06;;;;;;;32.42;16.27;;;2.10;99.90;;;;;;5076922;28;20081;-68
2021/12/27 03:57:34;;;;;;;29.02;13.98;;;2.10;99.90;;;;;;5095211;28;20024;-68
2021/12/27 04:00:27;;;;;;;28.13;14.57;;;2.10;99.90;;;;;;5076898;28;20031;-68
2021/12/27 04:02:55;;;;;;;28.33;14.07;;;2.10;99.90;;;;;;5076467;28;20024;-68
2021/12/27 04:05:22;;;;;;;30.77;13.55;;;2.10;99.90;;;;;;5077052;28;20116;-68
2021/12/27 04:07:56;;;;;;;28.95;14.45;;;2.20;99.90;;;;;;5094876;28;20028;-69
2021/12/27 04:10:22;;;;;;;29.33;14.23;;;2.30;99.90;;;;;;5077040;28;20028;-69
2021/12/27 04:12:48;;;;;;;53.58;28.02;;;2.30;99.90;;;;;;5076570;28;20062;-71
2021/12/27 04:15:14;;;;;;;72.40;39.08;;;2.30;99.90;;;;;;5077539;28;20020;-68
2021/12/27 04:17:40;;;;;;;39.22;20.80;;;;;;;;;;5076813;28;20024;-69
2021/12/27 04:20:06;;;;;;;37.15;19.20;;;;;;;;;;5076856;28;20023;-69
2021/12/27 04:22:33;;;;;;;30.00;13.40;;;;;;;;;;5075521;28;20052;-69
2021/12/27 04:25:00;;;;;;;32.35;15.07;;;;;;;;;;5094404;28;20024;-70
2021/12/27 04:27:26;;;;;;;29.67;13.73;;;;;;;;;;5076137;28;20112;-69
2021/12/27 04:29:52;;;;;;;28.00;13.48;;;;;;;;;;5094425;28;20024;-70
2021/12/27 04:32:18;;;;;;;28.85;14.13;;;;;;;;;;5093679;28;20028;-69
2021/12/27 04:34:44;;;;;;;30.23;14.43;;;;;;;;;;5094673;28;20025;-70
2021/12/27 04:37:10;;;;;;;27.77;13.40;;;;;;;;;;5094730;28;20016;-68
2021/12/27 04:39:36;;;;;;;31.88;13.80;;;;;;;;;;5096103;28;20097;-69
2021/12/27 04:42:03;;;;;;;28.13;14.07;;;;;;;;;;5075481;28;20028;-68
2021/12/27 04:44:29;;;;;;;31.52;14.20;;;;;;;;;;5075879;28;20032;-69
2021/12/27 04:46:55;;;;;;;27.38;13.98;;;;;;;;;;5076447;28;20115;-69
2021/12/27 04:49:21;;;;;;;28.27;13.48;;;;;;;;;;5094187;28;20384;-69
2021/12/27 04:51:48;;;;;;;30.23;14.95;;;;;;;;;;5075728;28;20074;-68
2021/12/27 04:54:14;;;;;;;31.38;13.70;;;;;;;;;;5076281;28;20028;-68
2021/12/27 04:56:40;;;;;;;30.38;14.63;;;;;;;;;;5076208;28;20384;-69
2021/12/27 04:59:06;;;;;;;29.92;14.98;;;;;;;;;;5093745;28;20016;-68
2021/12/27 05:01:32;;;;;;;29.63;13.07;;;;;;;;;;5093719;28;20081;-68
2021/12/27 05:03:58;;;;;;;29.95;14.73;;;;;;;;;;5093995;28;20039;-70
2021/12/27 05:06:24;;;;;;;26.35;13.05;;;;;;;;;;5075477;28;20114;-68
2021/12/27 05:08:53;;;;;;;28.58;14.63;;;;;;;;;;5075605;28;20020;-69
2021/12/27 05:11:19;;;;;;;27.13;13.40;;;;;;;;;;5075391;28;20028;-69
2021/12/27 05:13:45;;;;;;;29.63;14.13;;;;;;;;;;5074677;28;20134;-68
2021/12/27 05:16:11;;;;;;;31.00;14.20;;;;;;;;;;5075385;28;20111;-68
2021/12/27 05:18:37;;;;;;;27.10;13.98;;;;;;;;;;5093487;28;20027;-69
2021/12/27 05:21:03;;;;;;;28.45;13.60;;;;;;;;;;5075906;28;20110;-68
2021/12/27 05:23:31;;;;;;;30.65;14.57;;;;;;;;;;5074456;28;20040;-69
2021/12/27 05:25:57;;;;;;;29.92;13.35;;;;;;;;;;5075394;28;20039;-68
2021/12/27 05:28:23;;;;;;;27.98;13.32;;;;;;;;;;5093063;28;20024;-68
2021/12/27 05:30:51;;;;;;;29.55;13.65;;;;;;;;;;5093076;28;20028;-69
2021/12/27 05:33:18;;;;;;;27.67;13.15;;;;;;;;;;5092491;28;20028;-68
2021/12/27 05:35:43;;;;;;;30.13;14.15;;;;;;;;;;5075053;28;20031;-68
2021/12/27 05:38:10;;;;;;;26.63;13.55;;;;;;;;;;5075113;28;20020;-68
2021/12/27 05:40:36;;;;;;;28.83;14.32;;;;;;;;;;5093012;28;20051;-68
2021/12/27 05:43:02;;;;;;;29.70;14.13;;;;;;;;;;5092073;28;20027;-67
2021/12/27 05:45:28;;;;;;;27.42;13.40;;;;;;;;;;5074843;28;20500;-69
2021/12/27 05:47:55;;;;;;;30.45;14.10;;;;;;;;;;5092643;28;20024;-70
2021/12/27 05:50:21;;;;;;;26.88;14.15;;;2.30;99.90;;;;;;5074047;28;20404;-69
2021/12/27 05:52:46;;;;;;;26.30;13.02;;;2.80;99.90;;;;;;5091559;28;20020;-68
2021/12/27 05:55:13;;;;;;;31.88;13.80;;;3.00;99.90;;;;;;5074698;28;20111;-69
2021/12/27 05:57:39;;;;;;;26.83;13.02;;;3.00;99.90;;;;;;5074444;28;20078;-69
2021/12/27 06:00:07;;;;;;;29.75;13.80;;;3.10;99.90;;;;;;5092589;28;20027;-69
2021/12/27 06:02:32;;;;;;;29.40;14.55;;;3.10;99.90;;;;;;5073560;28;20020;-69
2021/12/27 06:04:58;;;;;;;30.83;14.23;;;3.10;99.90;;;;;;5092797;28;20027;-68
2021/12/27 06:07:24;;;;;;;27.30;13.70;;;3.00;99.90;;;;;;5092840;28;20050;-69
2021/12/27 06:09:49;;;;;;;28.25;13.25;;;3.00;99.90;;;;;;5084101;28;20102;-69
2021/12/27 06:12:15;;;;;;;24.90;12.10;;;2.90;99.90;;;;;;5072147;28;20020;-69
2021/12/27 06:14:41;;;;;;;27.38;14.05;;;2.90;99.90;;;;;;5061204;28;20027;-69
2021/12/27 06:17:06;;;;;;;30.73;13.93;;;2.80;99.90;;;;;;5054719;28;20411;-71
2021/12/27 06:19:32;;;;;;;27.88;13.50;;;2.60;99.90;;;;;;5089673;28;20051;-69
2021/12/27 06:21:58;;;;;;;29.27;13.10;;;2.70;99.90;;;;;;5074079;28;20038;-69
2021/12/27 06:24:24;;;;;;;29.17;14.35;;;2.70;99.90;;;;;;5092047;28;20032;-68
2021/12/27 06:26:49;;;;;;;24.20;12.88;;;2.80;99.90;;;;;;5065866;28;20035;-69
2021/12/27 06:29:15;;;;;;;27.40;13.32;;;2.80;99.90;;;;;;5072261;28;20028;-69
2021/12/27 06:31:41;;;;;;;26.30;12.52;;;2.80;99.90;;;;;;5053571;28;20020;-69
2021/12/27 06:34:07;;;;;;;26.85;14.20;;;2.80;99.90;;;;;;5071930;28;20624;-68
2021/12/27 06:36:33;;;;;;;26.45;13.13;;;2.80;99.90;;;;;;5054398;28;20465;-69
2021/12/27 06:38:59;;;;;;;26.67;13.13;;;2.80;99.90;;;;;;5072206;28;20051;-70
2021/12/27 06:41:25;;;;;;;27.48;14.05;;;2.90;99.90;;;;;;5053619;28;20029;-70
2021/12/27 06:43:52;;;;;;;30.38;12.77;;;2.90;99.90;;;;;;5060209;28;20499;-69
2021/12/27 06:46:18;;;;;;;28.42;13.65;;;2.80;99.90;;;;;;5074122;28;20024;-68
2021/12/27 06:48:44;;;;;;;29.30;13.40;;;2.80;99.90;;;;;;5074294;28;20020;-69
2021/12/27 06:51:09;;;;;;;27.95;14.15;;;2.80;99.90;;;;;;5074032;28;20169;-71
2021/12/27 06:53:35;;;;;;;26.70;12.52;;;2.80;99.90;;;;;;5091391;28;20016;-70
2021/12/27 06:56:02;;;;;;;26.17;11.65;;;2.80;99.90;;;;;;5073542;28;20024;-69
2021/12/27 06:58:27;;;;;;;25.33;12.07;;;2.80;99.90;;;;;;5092121;28;20020;-69
2021/12/27 07:00:53;;;;;;;29.70;12.95;;;2.80;99.90;;;;;;5074045;28;20134;-69
2021/12/27 07:03:19;;;;;;;26.35;11.88;;;2.80;99.90;;;;;;5073333;28;20024;-69
2021/12/27 07:05:45;;;;;;;24.88;12.10;;;2.80;99.90;;;;;;5068632;28;20028;-70
2021/12/27 07:08:10;;;;;;;26.20;13.70;;;2.80;99.90;;;;;;5079167;28;20051;-70
2021/12/27 07:10:36;;;;;;;26.98;12.88;;;2.80;99.90;;;;;;5078116;28;20020;-69
2021/12/27 07:13:03;;;;;;;25.42;12.57;;;2.80;99.90;;;;;;5090476;28;20028;-69
2021/12/27 07:15:30;;;;;;;27.40;12.68;;;2.80;99.90;;;;;;5057764;28;20115;-69
2021/12/27 07:17:56;;;;;;;26.17;12.65;;;2.80;99.90;;;;;;5075791;28;20024;-69
2021/12/27 07:20:22;;;;;;;26.48;11.98;;;2.80;99.90;;;;;;5057755;28;20032;-69
2021/12/27 07:22:48;;;;;;;27.63;12.82;;;2.80;99.90;;;;;;5079011;22;20025;-70
2021/12/27 07:25:14;;;;;;;27.70;13.10;;;2.90;99.90;;;;;;5075263;28;20043;-70
2021/12/27 07:27:39;;;;;;;25.73;11.57;;;2.90;99.90;;;;;;5074128;28;20652;-70
2021/12/27 07:30:08;;;;;;;22.52;11.13;;;2.90;99.90;;;;;;5075814;28;20016;-70
2021/12/27 07:32:34;;;;;;;29.23;12.75;;;2.90;99.90;;;;;;5082413;28;20020;-71
2021/12/27 07:35:00;;;;;;;27.10;12.40;;;3.00;99.90;;;;;;5075535;28;20157;-71
2021/12/27 07:37:26;;;;;;;25.90;11.80;;;3.00;99.90;;;;;;5074127;28;20028;-71
2021/12/27 07:39:51;;;;;;;25.75;12.05;;;3.00;99.90;;;;;;5073326;28;20103;-70
2021/12/27 07:42:17;;;;;;;23.65;12.10;;;3.10;99.90;;;;;;5074179;28;20024;-70
2021/12/27 07:44:49;;;;;;;28.13;12.65;;;3.10;99.90;;;;;;5077360;28;20108;-73
2021/12/27 07:47:14;;;;;;;30.13;13.13;;;3.10;99.90;;;;;;5096572;28;20098;-71
2021/12/27 07:49:40;;;;;;;24.92;12.52;;;3.10;99.90;;;;;;5076430;28;20475;-71
2021/12/27 07:52:07;;;;;;;26.48;12.75;;;3.10;99.90;;;;;;5076115;28;20032;-71
2021/12/27 07:54:36;;;;;;;24.65;10.20;;;3.10;99.90;;;;;;5076057;28;20027;-71
2021/12/27 07:57:02;;;;;;;24.05;11.88;;;3.10;99.90;;;;;;5094570;28;20035;-71
2021/12/27 07:59:28;;;;;;;26.58;13.85;;;3.10;99.90;;;;;;5094586;28;20020;-72
2021/12/27 08:01:53;;;;;;;23.17;12.10;;;3.20;99.90;;;;;;5093932;28;20039;-71
2021/12/27 08:04:19;;;;;;;24.27;10.95;;;3.20;99.90;;;;;;5076359;28;20020;-72
2021/12/27 08:06:45;;;;;;;23.35;12.60;;;3.20;99.90;;;;;;5076338;28;20069;-71
2021/12/27 08:09:10;;;;;;;24.75;11.65;;;3.20;99.90;;;;;;5075878;28;20024;-71
2021/12/27 08:11:36;;;;;;;26.05;12.07;;;3.30;99.90;;;;;;5075399;28;20131;-71
2021/12/27 08:14:03;;;;;;;26.65;12.32;;;3.30;99.90;;;;;;5093319;28;20042;-71
2021/12/27 08:16:29;;;;;;;23.92;11.73;;;3.30;99.90;;;;;;5093792;28;20048;-70
2021/12/27 08:18:55;;;;;;;25.55;12.00;;;;;;;;;;5094003;28;20066;-70
2021/12/27 08:21:22;;;;;;;23.33;10.57;;;;;;;;;;5093630;28;20028;-68
2021/12/27 08:23:48;;;;;;;23.00;11.38;;;;;;;;;;5074199;28;20054;-69
2021/12/27 08:26:14;;;;;;;27.60;13.10;;;;;;;;;;5093702;28;20480;-68
2021/12/27 08:28:41;;;;;;;25.35;10.82;;;;;;;;;;5093433;28;20557;-66
2021/12/27 08:31:07;;;;;;;24.90;10.55;;;;;;;;;;5093465;28;20024;-68
2021/12/27 08:33:33;;;;;;;25.15;11.57;;;;;;;;;;5092387;28;20027;-68
2021/12/27 08:35:59;;;;;;;22.55;10.85;;;;;;;;;;5093433;28;20024;-68
2021/12/27 08:38:25;;;;;;;22.70;10.52;;;;;;;;;;5074935;28;20024;-69
2021/12/27 08:40:51;;;;;;;22.67;10.25;;;;;;;;;;5075363;28;20024;-67
2021/12/27 08:43:17;;;;;;;24.17;11.30;;;;;;;;;;5074718;28;20028;-68
2021/12/27 08:45:44;;;;;;;22.98;10.35;;;;;;;;;;5093276;28;20032;-68
2021/12/27 08:48:10;;;;;;;24.27;10.60;;;;;;;;;;5075811;28;20024;-69
2021/12/27 08:50:37;;;;;;;22.70;10.25;;;;;;;;;;5075039;28;20032;-68
2021/12/27 08:53:05;;;;;;;25.77;10.90;;;;;;;;;;5070707;28;20028;-69
2021/12/27 08:55:31;;;;;;;22.70;10.60;;;;;;;;;;5075194;28;20540;-69
2021/12/27 08:57:57;;;;;;;21.73;9.60;;;;;;;;;;5093255;28;20028;-68
2021/12/27 09:00:23;;;;;;;23.80;10.93;;;;;;;;;;5074097;28;20383;-67
2021/12/27 09:02:49;;;;;;;23.20;11.80;;;;;;;;;;5066991;28;20020;-69
2021/12/27 09:05:15;;;;;;;23.58;11.70;;;;;;;;;;5093047;28;20016;-69
2021/12/27 09:07:41;;;;;;;24.13;10.40;;;;;;;;;;5074438;28;20122;-69
2021/12/27 09:10:08;;;;;;;22.42;11.00;;;3.40;99.90;;;;;;5074635;28;20031;-69
2021/12/27 09:12:34;;;;;;;25.25;11.25;;;4.40;99.90;;;;;;5090302;28;20020;-72
2021/12/27 09:15:00;;;;;;;23.75;10.68;;;4.40;99.90;;;;;;5074445;28;20027;-69
2021/12/27 09:17:25;;;;;;;21.92;10.93;;;4.40;99.90;;;;;;5093081;28;20498;-70
2021/12/27 09:19:51;;;;;;;22.08;10.52;;;4.40;99.90;;;;;;5093099;28;20020;-69
2021/12/27 09:22:18;;;;;;;20.02;9.57;;;4.40;99.90;;;;;;5074320;28;20067;-68
2021/12/27 09:24:44;;;;;;;22.63;11.10;;;4.40;99.90;;;;;;5084867;28;20472;-68
2021/12/27 09:27:10;;;;;;;22.75;10.30;;;4.40;99.90;;;;;;5054234;28;20021;-67
2021/12/27 09:29:36;;;;;;;23.95;12.05;;;4.50;99.90;;;;;;5072565;28;20024;-68
2021/12/27 09:32:02;;;;;;;24.15;11.85;;;4.50;99.90;;;;;;5071972;28;20439;-72
2021/12/27 09:34:28;;;;;;;23.15;11.05;;;4.50;99.90;;;;;;5054950;28;20055;-71
2021/12/27 09:36:54;;;;;;;22.48;11.00;;;4.50;99.90;;;;;;5072868;28;20385;-72
2021/12/27 09:39:19;;;;;;;21.30;10.63;;;4.50;99.90;;;;;;5072282;28;20061;-71
2021/12/27 09:41:45;;;;;;;22.40;10.00;;;4.50;99.90;;;;;;5072348;28;20108;-72
2021/12/27 09:44:11;;;;;;;24.42;12.02;;;4.60;99.90;;;;;;5072844;28;20032;-72
2021/12/27 09:46:37;;;;;;;20.27;9.65;;;4.60;99.90;;;;;;5082553;28;20036;-69
2021/12/27 09:49:11;;;;;;;22.35;10.07;;;4.60;99.90;;;;;;5093194;28;20028;-73
2021/12/27 09:51:37;;;;;;;24.02;12.32;;;4.60;99.90;;;;;;5074188;28;20028;-72
2021/12/27 09:54:04;;;;;;;21.98;10.35;;;4.70;99.90;;;;;;5092463;28;20023;-72
2021/12/27 09:56:30;;;;;;;21.42;10.57;;;4.80;99.90;;;;;;5092673;28;20099;-73
2021/12/27 09:58:56;;;;;;;21.42;11.50;;;4.80;99.90;;;;;;5092830;28;20225;-71
2021/12/27 10:01:22;;;;;;;21.98;10.38;;;4.80;99.90;;;;;;5092864;28;20505;-71
2021/12/27 10:03:50;;;;;;;21.02;10.10;;;4.80;99.90;;;;;;5073890;28;20032;-71
2021/12/27 10:06:18;;;;;;;20.67;10.13;;;4.90;99.90;;;;;;5075711;28;20426;-71
2021/12/27 10:08:50;;;;;;;21.30;10.05;;;4.90;99.90;;;;;;5072305;28;20082;-71
2021/12/27 10:11:19;;;;;;;19.65;8.82;;;5.00;99.90;;;;;;5071895;28;20024;-71
2021/12/27 10:13:58;;;;;;;24.27;9.10;;;5.10;99.90;;;;;;5090002;28;20479;-71
2021/12/27 10:16:26;;;;;;;19.67;9.63;;;5.10;99.90;;;;;;5092877;28;20030;-71
2021/12/27 10:18:56;;;;;;;20.15;10.13;;;5.20;99.90;;;;;;5074222;28;20072;-70
2021/12/27 10:21:22;;;;;;;21.60;10.88;;;5.20;99.90;;;;;;5092292;28;20069;-72
2021/12/27 10:23:48;;;;;;;22.20;9.68;;;5.20;99.90;;;;;;5090599;28;20055;-68
2021/12/27 10:26:18;;;;;;;19.35;9.52;;;5.40;99.90;;;;;;5091687;28;20059;-68
2021/12/27 10:28:43;;;;;;;19.05;9.02;;;5.50;99.90;;;;;;5091612;28;20035;-69
2021/12/27 10:31:09;;;;;;;21.38;9.68;;;5.70;99.90;;;;;;5091519;28;20024;-68
2021/12/27 10:33:34;;;;;;;23.20;10.43;;;5.70;99.90;;;;;;5090882;28;20027;-68
2021/12/27 10:36:00;;;;;;;21.90;9.80;;;5.90;99.90;;;;;;5073234;28;20353;-68
2021/12/27 10:38:31;;;;;;;21.17;10.30;;;6.10;99.90;;;;;;5097371;28;20496;-68
2021/12/27 10:41:03;;;;;;;25.75;11.65;;;6.00;99.90;;;;;;5098686;28;20065;-68
2021/12/27 10:43:38;;;;;;;20.02;9.52;;;;;;;;;;5097688;28;20028;-67
2021/12/27 10:46:09;;;;;;;20.08;10.02;;;6.10;99.90;;;;;;5098968;28;20027;-68
2021/12/27 10:48:38;;;;;;;20.35;9.35;;;6.40;99.90;;;;;;5082005;28;20483;-67
2021/12/27 10:51:05;;;;;;;20.85;10.35;;;;;;;;;;5098575;28;20035;-69
2021/12/27 10:53:47;;;;;;;19.33;9.27;;;6.50;99.90;;;;;;5098032;28;20024;-68
2021/12/27 10:56:13;;;;;;;20.30;10.15;;;;;;;;;;5098223;28;20073;-66
2021/12/27 10:58:55;;;;;;;18.25;9.82;;;8.40;99.90;;;;;;5076811;28;20103;-67
2021/12/27 11:01:22;;;;;;;17.85;10.15;;;11.40;99.90;;;;;;5075570;28;20028;-67
2021/12/27 11:03:51;;;;;;;19.48;11.55;;;12.40;99.90;;;;;;5069854;28;20024;-66
2021/12/27 11:06:22;;;;;;;20.67;12.10;;;12.90;99.90;;;;;;5083997;28;20503;-67
2021/12/27 11:08:48;;;;;;;18.00;11.35;;;12.70;99.90;;;;;;5097966;28;20026;-67
2021/12/27 11:11:16;;;;;;;19.17;12.23;;;13.10;99.90;;;;;;5098297;28;20065;-67
2021/12/27 11:13:43;;;;;;;18.02;11.23;;;13.40;98.70;;;;;;5097595;28;20510;-68
2021/12/27 11:16:09;;;;;;;17.70;11.40;;;12.60;99.00;;;;;;5098176;28;20539;-68
2021/12/27 11:18:35;;;;;;;20.42;11.95;;;11.50;99.90;;;;;;5097665;28;20063;-69
2021/12/27 11:21:09;;;;;;;17.58;10.68;;;11.00;99.90;;;;;;5097166;28;20028;-67
2021/12/27 11:23:35;;;;;;;21.60;13.80;;;10.50;99.90;;;;;;5095885;28;20043;-68
2021/12/27 11:26:06;;;;;;;24.45;15.77;;;;;;;;;;5078728;28;20421;-68
2021/12/27 11:28:33;;;;;;;24.83;15.45;;;;;;;;;;5076655;28;20028;-69
2021/12/27 11:31:04;;;;;;;19.35;10.48;;;10.10;99.90;;;;;;5083944;28;20029;-71
2021/12/27 11:33:51;;;;;;;22.02;13.60;;;9.10;99.90;;;;;;5066880;28;20086;-68
2021/12/27 11:36:17;;;;;;;24.17;15.52;;;9.10;99.90;;;;;;5059784;28;20127;-68
2021/12/27 11:38:43;;;;;;;22.10;12.57;;;8.70;99.90;;;;;;5077263;28;20021;-68
2021/12/27 11:41:24;;;;;;;17.98;10.13;;;8.60;99.90;;;;;;5059301;28;20031;-67
2021/12/27 11:43:59;;;;;;;22.42;12.30;;;;;;;;;;5076591;28;20024;-69
2021/12/27 11:46:29;;;;;;;22.92;11.60;;;;;;;;;;5077303;28;20672;-68
2021/12/27 11:48:56;;;;;;;16.95;8.85;;;;;;;;;;5074072;28;20097;-68
2021/12/27 11:51:31;;;;;;;19.40;11.35;;;;;;;;;;5055508;28;20516;-68
2021/12/27 11:53:59;;;;;;;17.95;9.00;;;8.50;99.90;;;;;;5072705;28;20020;-68
2021/12/27 11:56:46;;;;;;;21.13;10.98;;;;;;;;;;5074316;28;20074;-66
2021/12/27 11:59:24;;;;;;;19.33;10.23;;;;;;;;;;5073746;28;20041;-68
2021/12/27 12:01:51;;;;;;;18.15;9.48;;;;;;;;;;5055193;28;20028;-67
2021/12/27 12:04:44;;;;;;;18.02;8.85;;;9.30;99.90;;;;;;5055478;28;20036;-68
2021/12/27 12:07:10;;;;;;;19.15;9.50;;;9.20;99.90;;;;;;5073505;28;20052;-68
2021/12/27 12:09:46;;;;;;;17.80;9.00;;;8.80;99.90;;;;;;5087211;28;20024;-68
2021/12/27 12:12:14;;;;;;;20.58;11.38;;;8.50;99.90;;;;;;5070657;28;20077;-67
2021/12/27 12:14:40;;;;;;;18.23;9.68;;;8.40;99.90;;;;;;5092925;28;20091;-67
2021/12/27 12:17:15;;;;;;;18.42;8.75;;;8.30;99.90;;;;;;5075244;28;20016;-68
2021/12/27 12:19:48;;;;;;;17.33;8.93;;;8.30;99.90;;;;;;5070941;28;20021;-68
2021/12/27 12:22:33;;;;;;;19.10;9.63;;;8.30;99.90;;;;;;5072891;28;20036;-68
2021/12/27 12:25:13;;;;;;;19.20;8.93;;;8.30;99.90;;;;;;5083911;28;20062;-69
2021/12/27 12:27:50;;;;;;;20.77;9.75;;;8.50;99.90;;;;;;5070032;28;20051;-68
2021/12/27 12:30:16;;;;;;;18.95;9.00;;;8.70;99.90;;;;;;5073460;28;20029;-69
2021/12/27 12:33:16;;;;;;;19.27;9.27;;;8.80;99.90;;;;;;5071533;28;20020;-69
2021/12/27 12:35:42;;;;;;;18.95;9.27;;;8.70;99.90;;;;;;5072047;28;20040;-69
2021/12/27 12:38:13;;;;;;;17.73;8.57;;;8.70;99.90;;;;;;5071517;28;20021;-69
2021/12/27 12:40:39;;;;;;;18.08;8.27;;;;;;;;;;5072635;28;20031;-68
2021/12/27 12:43:06;;;;;;;17.48;8.93;;;;;;;;;;5071063;28;20031;-68
2021/12/27 12:45:32;;;;;;;15.90;8.13;;;;;;;;;;5072913;28;20052;-69
2021/12/27 12:47:58;;;;;;;16.73;8.90;;;;;;;;;;5071568;28;20024;-69
2021/12/27 12:50:24;;;;;;;16.73;8.68;;;;;;;;;;5072201;28;20107;-68
2021/12/27 12:52:51;;;;;;;17.33;9.15;;;;;;;;;;5072188;28;20050;-70
2021/12/27 12:55:20;;;;;;;18.15;9.32;;;;;;;;;;5072876;28;20025;-70
2021/12/27 12:57:50;;;;;;;17.95;8.85;;;;;;;;;;5072655;28;20027;-69
2021/12/27 13:00:21;;;;;;;17.42;8.82;;;;;;;;;;5072476;28;20017;-69
2021/12/27 13:02:47;;;;;;;16.05;7.80;;;;;;;;;;5070593;28;20032;-67
2021/12/27 13:05:15;;;;;;;16.48;8.05;;;;;;;;;;5072605;28;20104;-68
2021/12/27 13:07:54;;;;;;;17.00;8.80;;;;;;;;;;5073040;28;20021;-69
2021/12/27 13:10:26;;;;;;;17.42;8.93;;;;;;;;;;5071331;28;20299;-69